createdAt,value
2022-12-14T00:01:24.383Z,9.00
2022-12-14T00:03:51.496Z,8.77
2022-12-14T00:06:27.350Z,7.55
2022-12-14T00:08:56.561Z,8.63
2022-12-14T00:11:23.270Z,7.90
2022-12-14T00:13:58.317Z,8.05
2022-12-14T00:16:27.180Z,8.40
2022-12-14T00:18:55.868Z,8.20
2022-12-14T00:21:22.677Z,8.48
2022-12-14T00:23:50.353Z,7.23
2022-12-14T00:26:18.100Z,9.15
2022-12-14T00:28:46.413Z,7.55
2022-12-14T00:31:13.109Z,9.07
2022-12-14T00:33:39.960Z,8.88
2022-12-14T00:36:08.117Z,7.63
2022-12-14T00:38:35.057Z,7.65
2022-12-14T00:41:01.477Z,7.80
2022-12-14T00:43:28.043Z,8.65
2022-12-14T00:45:54.701Z,8.35
2022-12-14T00:48:22.952Z,8.87
2022-12-14T00:50:51.160Z,8.57
2022-12-14T00:53:20.013Z,8.45
2022-12-14T00:55:49.275Z,8.02
2022-12-14T00:58:21.235Z,7.28
2022-12-14T01:00:57.939Z,8.47
2022-12-14T01:03:24.819Z,7.38
2022-12-14T01:05:51.418Z,6.97
2022-12-14T01:08:17.882Z,8.48
2022-12-14T01:10:44.854Z,8.43
2022-12-14T01:13:11.606Z,8.20
2022-12-14T01:15:38.295Z,7.82
2022-12-14T01:18:04.947Z,7.13
2022-12-14T01:20:31.506Z,7.70
2022-12-14T01:22:58.336Z,8.00
2022-12-14T01:25:25.189Z,8.43
2022-12-14T01:27:51.722Z,8.25
2022-12-14T01:30:19.293Z,7.60
2022-12-14T01:32:46.628Z,7.95
2022-12-14T01:35:13.093Z,8.30
2022-12-14T01:37:39.635Z,7.17
2022-12-14T01:40:06.451Z,7.85
2022-12-14T01:42:35.597Z,8.35
2022-12-14T01:45:01.994Z,8.32
2022-12-14T01:47:34.254Z,8.43
2022-12-14T01:50:22.925Z,7.70
2022-12-14T01:52:53.943Z,8.45
2022-12-14T01:55:35.540Z,8.10
2022-12-14T01:58:08.485Z,7.15
2022-12-14T02:00:34.837Z,8.02
2022-12-14T02:03:07.631Z,8.43
2022-12-14T02:05:37.441Z,7.72
2022-12-14T02:08:06.044Z,7.80
2022-12-14T02:10:33.358Z,7.18
2022-12-14T02:13:08.798Z,7.60
2022-12-14T02:15:37.650Z,7.17
2022-12-14T02:18:08.767Z,7.50
2022-12-14T02:21:13.765Z,8.52
2022-12-14T02:24:08.107Z,7.60
2022-12-14T02:26:40.445Z,7.75
2022-12-14T02:29:21.975Z,7.53
2022-12-14T02:32:10.716Z,6.95
2022-12-14T02:35:07.598Z,8.48
2022-12-14T02:37:57.160Z,6.95
2022-12-14T02:40:29.544Z,7.18
2022-12-14T02:43:09.107Z,7.80
2022-12-14T02:45:59.842Z,8.10
2022-12-14T02:48:33.122Z,7.07
2022-12-14T02:51:15.162Z,7.35
2022-12-14T02:53:56.965Z,7.75
2022-12-14T02:56:29.647Z,7.47
2022-12-14T02:58:56.885Z,7.13
2022-12-14T03:01:27.335Z,7.13
2022-12-14T03:03:54.001Z,7.57
2022-12-14T03:06:28.634Z,7.60
2022-12-14T03:09:01.857Z,7.60
2022-12-14T03:11:56.165Z,7.40
2022-12-14T03:14:40.453Z,7.82
2022-12-14T03:17:19.453Z,7.68
2022-12-14T03:19:54.609Z,7.70
2022-12-14T03:22:27.093Z,7.60
2022-12-14T03:24:58.275Z,7.15
2022-12-14T03:27:30.325Z,7.57
2022-12-14T03:30:00.554Z,6.20
2022-12-14T03:32:30.973Z,7.90
2022-12-14T03:35:03.136Z,6.60
2022-12-14T03:37:36.589Z,7.07
2022-12-14T03:40:03.206Z,7.95
2022-12-14T03:42:41.545Z,7.18
2022-12-14T03:45:28.984Z,6.97
2022-12-14T03:48:32.516Z,7.60
2022-12-14T03:51:13.016Z,5.85
2022-12-14T03:53:51.747Z,6.25
2022-12-14T03:56:38.954Z,7.15
2022-12-14T03:59:38.728Z,7.50
2022-12-14T04:02:16.527Z,6.83
2022-12-14T04:04:58.996Z,6.22
2022-12-14T04:07:38.453Z,6.75
2022-12-14T04:10:33.113Z,6.68
2022-12-14T04:13:28.924Z,6.80
2022-12-14T04:16:18.602Z,6.77
2022-12-14T04:19:01.757Z,6.72
2022-12-14T04:21:44.278Z,6.80
2022-12-14T04:24:52.014Z,6.55
2022-12-14T04:27:37.124Z,6.72
2022-12-14T04:30:06.631Z,7.03
2022-12-14T04:32:48.382Z,6.97
2022-12-14T04:35:29.129Z,6.30
2022-12-14T04:38:03.053Z,6.78
2022-12-14T04:40:35.262Z,7.35
2022-12-14T04:43:07.789Z,7.20
2022-12-14T04:45:41.080Z,8.02
2022-12-14T04:48:31.694Z,6.93
2022-12-14T04:51:16.036Z,7.72
2022-12-14T04:53:46.864Z,7.53
2022-12-14T04:56:19.409Z,6.73
2022-12-14T04:58:46.216Z,7.68
2022-12-14T05:01:35.115Z,6.53
2022-12-14T05:04:13.911Z,7.32
2022-12-14T05:07:00.612Z,6.75
2022-12-14T05:09:57.534Z,7.43
2022-12-14T05:12:35.412Z,7.18
2022-12-14T05:15:13.576Z,6.40
2022-12-14T05:17:41.788Z,6.78
2022-12-14T05:20:23.618Z,6.80
2022-12-14T05:22:50.608Z,7.07
2022-12-14T05:25:17.024Z,6.97
2022-12-14T05:27:43.641Z,7.72
2022-12-14T05:30:10.729Z,7.03
2022-12-14T05:32:37.128Z,7.28
2022-12-14T05:35:04.334Z,6.93
2022-12-14T05:37:30.711Z,7.80
2022-12-14T05:39:57.070Z,7.82
2022-12-14T05:42:23.527Z,7.18
2022-12-14T05:44:49.938Z,6.75
2022-12-14T05:47:16.290Z,8.43
2022-12-14T05:49:42.790Z,6.38
2022-12-14T05:52:09.193Z,6.75
2022-12-14T05:54:35.624Z,7.60
2022-12-14T05:57:02.096Z,6.78
2022-12-14T05:59:28.546Z,7.23
2022-12-14T06:01:55.046Z,6.53
2022-12-14T06:04:21.495Z,6.32
2022-12-14T06:06:47.960Z,6.50
2022-12-14T06:09:16.195Z,6.95
2022-12-14T06:11:43.395Z,6.70
2022-12-14T06:14:10.355Z,6.88
2022-12-14T06:16:40.595Z,6.20
2022-12-14T06:19:08.114Z,6.90
2022-12-14T06:21:36.577Z,6.25
2022-12-14T06:24:04.287Z,6.30
2022-12-14T06:26:32.558Z,6.85
2022-12-14T06:28:59.554Z,6.05
2022-12-14T06:31:28.865Z,6.65
2022-12-14T06:33:58.268Z,6.18
2022-12-14T06:36:30.635Z,6.20
2022-12-14T06:39:00.201Z,6.45
2022-12-14T06:41:26.612Z,6.80
2022-12-14T06:43:53.735Z,6.53
2022-12-14T06:46:22.138Z,6.80
2022-12-14T06:48:55.809Z,6.40
2022-12-14T06:51:24.943Z,5.97
2022-12-14T06:53:56.083Z,7.13
2022-12-14T06:56:23.846Z,6.45
2022-12-14T06:58:50.639Z,6.22
2022-12-14T07:01:20.863Z,6.27
2022-12-14T07:03:53.805Z,7.18
2022-12-14T07:06:21.946Z,5.90
2022-12-14T07:08:49.789Z,7.18
2022-12-14T07:11:18.143Z,6.72
2022-12-14T07:13:45.871Z,6.33
2022-12-14T07:16:21.725Z,6.93
2022-12-14T07:18:49.612Z,7.30
2022-12-14T07:21:19.009Z,6.18
2022-12-14T07:23:47.589Z,5.97
2022-12-14T07:26:24.601Z,5.90
2022-12-14T07:28:53.267Z,5.70
2022-12-14T07:31:26.178Z,6.32
2022-12-14T07:33:55.995Z,6.03
2022-12-14T07:36:25.417Z,6.28
2022-12-14T07:38:55.887Z,5.77
2022-12-14T07:41:32.775Z,5.65
2022-12-14T07:44:01.768Z,6.03
2022-12-14T07:46:30.770Z,5.57
2022-12-14T07:48:58.671Z,6.45
2022-12-14T07:51:28.650Z,6.13
2022-12-14T07:53:55.731Z,4.95
2022-12-14T07:56:25.172Z,5.70
2022-12-14T07:58:52.381Z,6.22
2022-12-14T08:01:31.343Z,6.38
2022-12-14T08:04:00.452Z,5.63
2022-12-14T08:06:28.939Z,5.53
2022-12-14T08:08:56.397Z,6.35
2022-12-14T08:11:23.978Z,5.28
2022-12-14T08:13:58.178Z,5.40
2022-12-14T08:16:25.992Z,5.57
2022-12-14T08:18:54.439Z,5.93
2022-12-14T08:21:22.424Z,5.03
2022-12-14T08:23:49.724Z,5.20
2022-12-14T08:26:16.541Z,5.38
2022-12-14T08:28:43.292Z,5.53
2022-12-14T08:31:21.133Z,5.32
2022-12-14T08:33:48.842Z,7.00
2022-12-14T08:36:37.701Z,5.38
2022-12-14T08:39:07.103Z,5.93
2022-12-14T08:41:33.855Z,6.23
2022-12-14T08:44:02.565Z,6.40
2022-12-14T08:46:30.858Z,6.10
2022-12-14T08:48:58.764Z,7.38
2022-12-14T08:51:26.915Z,8.23
2022-12-14T08:53:54.625Z,6.60
2022-12-14T08:56:23.894Z,6.32
2022-12-14T08:58:50.620Z,7.28
2022-12-14T09:01:28.204Z,7.05
2022-12-14T09:04:02.506Z,6.75
2022-12-14T09:06:28.995Z,8.17
2022-12-14T09:08:55.825Z,7.20
2022-12-14T09:11:22.571Z,9.02
2022-12-14T09:13:49.156Z,7.53
2022-12-14T09:16:18.314Z,8.07
2022-12-14T09:18:46.089Z,8.60
2022-12-14T09:21:12.723Z,7.93
2022-12-14T09:23:39.885Z,8.07
2022-12-14T09:26:12.529Z,8.20
2022-12-14T09:28:40.699Z,8.25
2022-12-14T09:31:10.910Z,7.90
2022-12-14T09:33:37.452Z,8.05
2022-12-14T09:36:24.745Z,8.15
2022-12-14T09:38:52.856Z,8.55
2022-12-14T09:41:34.286Z,8.50
2022-12-14T09:44:19.071Z,8.03
2022-12-14T09:47:15.780Z,7.93
2022-12-14T09:49:57.065Z,7.90
2022-12-14T09:52:41.666Z,7.30
2022-12-14T09:55:26.725Z,8.75
2022-12-14T09:58:31.912Z,8.47
2022-12-14T10:01:25.408Z,8.80
2022-12-14T10:04:10.947Z,8.45
2022-12-14T10:06:43.243Z,7.53
2022-12-14T10:09:22.999Z,8.20
2022-12-14T10:11:50.407Z,8.13
2022-12-14T10:14:26.369Z,8.90
2022-12-14T10:17:20.981Z,8.27
2022-12-14T10:20:04.433Z,9.20
2022-12-14T10:22:42.835Z,9.15
2022-12-14T10:25:27.847Z,9.37
2022-12-14T10:28:15.756Z,8.52
2022-12-14T10:30:43.660Z,7.93
2022-12-14T10:33:26.528Z,9.00
2022-12-14T10:35:55.123Z,8.85
2022-12-14T10:38:39.491Z,8.87
2022-12-14T10:41:19.904Z,9.32
2022-12-14T10:44:08.874Z,9.32
2022-12-14T10:46:44.361Z,9.43
2022-12-14T10:49:31.523Z,9.07
2022-12-14T10:52:12.362Z,8.87
2022-12-14T10:54:45.251Z,9.40
2022-12-14T10:57:28.551Z,8.70
2022-12-14T11:00:08.626Z,7.80
2022-12-14T11:02:41.108Z,7.65
2022-12-14T11:05:46.090Z,9.10
2022-12-14T11:08:41.491Z,7.40
2022-12-14T11:11:24.239Z,8.88
2022-12-14T11:14:06.240Z,8.10
2022-12-14T11:16:39.297Z,8.35
2022-12-14T11:19:16.699Z,8.10
2022-12-14T11:21:44.318Z,8.75
2022-12-14T11:24:31.315Z,8.73
2022-12-14T11:27:03.859Z,8.35
2022-12-14T11:29:40.477Z,8.23
2022-12-14T11:32:16.807Z,9.60
2022-12-14T11:34:43.390Z,8.07
2022-12-14T11:37:28.450Z,8.52
2022-12-14T11:39:57.667Z,8.30
2022-12-14T11:42:24.725Z,7.90
2022-12-14T11:44:52.203Z,8.97
2022-12-14T11:47:21.770Z,8.73
2022-12-14T11:49:56.912Z,7.72
2022-12-14T11:52:26.261Z,7.88
2022-12-14T11:54:52.550Z,8.57
2022-12-14T11:57:26.944Z,8.13
2022-12-14T12:00:00.029Z,8.52
2022-12-14T12:02:46.502Z,8.30
2022-12-14T12:05:15.808Z,8.70
2022-12-14T12:07:55.723Z,8.55
2022-12-14T12:10:33.774Z,7.77
2022-12-14T12:13:02.023Z,8.95
2022-12-14T12:15:37.119Z,8.98
2022-12-14T12:18:21.679Z,8.18
2022-12-14T12:20:59.487Z,9.38
2022-12-14T12:23:35.320Z,8.13
2022-12-14T12:26:11.321Z,9.02
2022-12-14T12:28:44.268Z,8.18
2022-12-14T12:31:18.577Z,8.25
2022-12-14T12:33:51.971Z,8.13
2022-12-14T12:36:24.028Z,8.47
2022-12-14T12:39:04.066Z,7.60
2022-12-14T12:41:41.622Z,7.35
2022-12-14T12:44:34.543Z,6.88
2022-12-14T12:47:25.422Z,7.43
2022-12-14T12:49:53.430Z,6.10
2022-12-14T12:52:47.165Z,6.07
2022-12-14T12:58:10.256Z,6.35
2022-12-14T13:00:40.151Z,6.45
2022-12-14T13:03:25.295Z,6.70
2022-12-14T13:05:54.057Z,6.40
2022-12-14T13:08:28.706Z,6.25
2022-12-14T13:13:51.567Z,7.25
2022-12-14T13:16:27.419Z,6.37
2022-12-14T13:19:25.030Z,5.63
2022-12-14T13:22:03.287Z,5.25
2022-12-14T13:24:31.912Z,5.32
2022-12-14T13:27:01.263Z,5.72
2022-12-14T13:30:01.033Z,5.40
2022-12-14T13:32:42.630Z,5.57
2022-12-14T13:35:36.780Z,5.32
2022-12-14T13:38:18.611Z,6.93
2022-12-14T13:41:01.331Z,6.35
2022-12-14T13:43:41.554Z,6.13
2022-12-14T13:46:20.190Z,6.63
2022-12-14T13:48:49.796Z,6.60
2022-12-14T13:51:25.159Z,6.47
2022-12-14T13:53:57.047Z,7.15
2022-12-14T13:56:33.001Z,5.23
2022-12-14T13:59:03.898Z,6.60
2022-12-14T14:01:54.189Z,5.95
2022-12-14T14:04:35.525Z,5.75
2022-12-14T14:07:25.205Z,6.53
2022-12-14T14:10:05.761Z,5.90
2022-12-14T14:12:38.255Z,5.70
2022-12-14T14:15:07.701Z,7.05
2022-12-14T14:17:40.413Z,6.00
2022-12-14T14:20:59.329Z,6.43
2022-12-14T14:23:32.113Z,5.27
2022-12-14T14:26:20.117Z,5.47
2022-12-14T14:29:05.946Z,5.72
2022-12-14T14:31:54.826Z,5.45
2022-12-14T14:34:37.323Z,5.68
2022-12-14T14:37:38.157Z,4.97
2022-12-14T14:40:23.482Z,5.45
2022-12-14T14:43:00.937Z,5.55
2022-12-14T14:45:31.191Z,4.95
2022-12-14T14:48:02.137Z,5.75
2022-12-14T14:50:36.899Z,4.97
2022-12-14T14:53:27.175Z,5.35
2022-12-14T14:56:01.764Z,6.43
2022-12-14T14:58:32.150Z,6.30
2022-12-14T15:01:27.288Z,6.05
2022-12-14T15:04:02.286Z,5.83
2022-12-14T15:06:40.383Z,5.38
2022-12-14T15:09:12.563Z,6.55
2022-12-14T15:11:51.420Z,4.60
2022-12-14T15:14:30.125Z,5.90
2022-12-14T15:16:56.519Z,5.23
2022-12-14T15:19:36.187Z,5.90
2022-12-14T15:22:09.094Z,5.65
2022-12-14T15:24:40.056Z,5.63
2022-12-14T15:27:28.058Z,5.03
2022-12-14T15:30:20.951Z,5.43
2022-12-14T15:33:01.174Z,5.18
2022-12-14T15:35:31.854Z,4.45
2022-12-14T15:38:02.681Z,4.82
2022-12-14T15:40:31.219Z,5.43
2022-12-14T15:42:59.767Z,5.60
2022-12-14T15:45:41.204Z,5.85
2022-12-14T15:48:30.136Z,5.03
2022-12-14T15:51:15.369Z,4.25
2022-12-14T15:53:50.802Z,5.38
2022-12-14T15:56:39.508Z,4.90
2022-12-14T15:59:31.446Z,5.22
2022-12-14T16:02:17.250Z,4.53
2022-12-14T16:04:44.824Z,5.70
2022-12-14T16:07:23.086Z,5.95
2022-12-14T16:10:00.339Z,6.47
2022-12-14T16:12:44.769Z,6.40
2022-12-14T16:15:19.597Z,6.43
2022-12-14T16:17:46.572Z,6.20
2022-12-14T16:20:22.545Z,5.63
2022-12-14T16:23:13.454Z,4.50
2022-12-14T16:26:03.164Z,5.70
2022-12-14T16:28:36.821Z,6.45
2022-12-14T16:31:08.230Z,5.32
2022-12-14T16:33:36.733Z,6.50
2022-12-14T16:36:08.740Z,6.07
2022-12-14T16:38:53.371Z,5.53
2022-12-14T16:41:19.773Z,5.95
2022-12-14T16:43:55.834Z,5.43
2022-12-14T16:46:22.435Z,5.82
2022-12-14T16:49:20.342Z,5.80
2022-12-14T16:52:12.700Z,5.65
2022-12-14T16:54:39.191Z,5.82
2022-12-14T16:57:17.466Z,5.35
2022-12-14T16:59:46.424Z,5.88
2022-12-14T17:02:47.074Z,5.10
2022-12-14T17:05:18.654Z,5.43
2022-12-14T17:07:45.055Z,5.78
2022-12-14T17:10:23.373Z,5.97
2022-12-14T17:12:50.398Z,6.57
2022-12-14T17:15:21.623Z,5.50
2022-12-14T17:17:50.909Z,5.30
2022-12-14T17:20:26.351Z,5.57
2022-12-14T17:22:54.251Z,6.45
2022-12-14T17:25:20.934Z,6.65
2022-12-14T17:27:49.455Z,5.90
2022-12-14T17:30:17.793Z,6.53
2022-12-14T17:32:44.762Z,5.88
2022-12-14T17:35:24.043Z,6.55
2022-12-14T17:37:51.704Z,6.20
2022-12-14T17:40:18.202Z,5.80
2022-12-14T17:42:49.389Z,5.53
2022-12-14T17:45:22.052Z,5.95
2022-12-14T17:47:49.221Z,5.25
2022-12-14T17:50:17.954Z,5.50
2022-12-14T17:52:45.823Z,5.70
2022-12-14T17:55:23.937Z,6.05
2022-12-14T17:57:50.844Z,6.38
2022-12-14T18:00:44.745Z,5.85
2022-12-14T18:03:12.901Z,5.40
2022-12-14T18:05:46.492Z,5.90
2022-12-14T18:08:15.389Z,5.85
2022-12-14T18:10:41.819Z,7.18
2022-12-14T18:13:09.936Z,6.50
2022-12-14T18:15:49.695Z,5.78
2022-12-14T18:18:18.531Z,6.30
2022-12-14T18:20:49.623Z,5.05
2022-12-14T18:23:17.483Z,6.30
2022-12-14T18:25:49.462Z,5.55
2022-12-14T18:28:16.458Z,4.88
2022-12-14T18:30:49.762Z,5.07
2022-12-14T18:33:22.151Z,5.68
2022-12-14T18:35:50.050Z,5.65
2022-12-14T18:38:16.832Z,4.50
2022-12-14T18:40:49.447Z,5.45
2022-12-14T18:43:19.566Z,4.27
2022-12-14T18:45:46.007Z,5.60
2022-12-14T18:48:12.472Z,5.50
2022-12-14T18:50:42.918Z,4.75
2022-12-14T18:53:16.806Z,5.18
2022-12-14T18:55:43.863Z,4.57
2022-12-14T18:58:16.849Z,4.72
2022-12-14T19:00:43.923Z,4.65
2022-12-14T19:03:10.474Z,4.35
2022-12-14T19:05:37.456Z,4.55
2022-12-14T19:08:04.014Z,4.23
2022-12-14T19:10:32.157Z,4.70
2022-12-14T19:12:59.316Z,4.85
2022-12-14T19:15:28.573Z,4.38
2022-12-14T19:17:56.075Z,5.13
2022-12-14T19:20:23.586Z,5.20
2022-12-14T19:22:54.094Z,5.50
2022-12-14T19:25:22.678Z,4.78
2022-12-14T19:30:39.449Z,4.40
2022-12-14T19:33:06.054Z,5.40
2022-12-14T19:35:32.577Z,4.55
2022-12-14T19:37:59.079Z,4.85
2022-12-14T19:40:26.539Z,4.95
2022-12-14T19:42:53.137Z,5.07
2022-12-14T19:45:19.807Z,4.90
2022-12-14T19:47:46.531Z,4.82
2022-12-14T19:50:14.911Z,4.97
2022-12-14T19:52:42.560Z,4.72
2022-12-14T19:55:10.829Z,4.57
2022-12-14T19:57:38.988Z,4.30
2022-12-14T20:00:06.992Z,4.28
2022-12-14T20:02:33.650Z,5.55
2022-12-14T20:05:00.124Z,4.25
2022-12-14T20:07:26.498Z,5.65
2022-12-14T20:09:52.926Z,4.90
2022-12-14T20:12:19.296Z,5.63
2022-12-14T20:14:49.367Z,5.00
2022-12-14T20:17:16.176Z,4.65
2022-12-14T20:19:42.534Z,5.45
2022-12-14T20:22:09.134Z,6.37
2022-12-14T20:24:36.064Z,6.47
2022-12-14T20:27:02.570Z,6.43
2022-12-14T20:29:29.084Z,6.63
2022-12-14T20:31:55.704Z,5.38
2022-12-14T20:34:22.693Z,5.63
2022-12-14T20:36:49.247Z,5.45
2022-12-14T20:39:15.660Z,6.25
2022-12-14T20:41:42.077Z,6.45
2022-12-14T20:44:12.024Z,6.57
2022-12-14T20:46:42.242Z,6.10
2022-12-14T20:49:14.878Z,6.57
2022-12-14T20:51:41.994Z,6.97
2022-12-14T20:54:12.706Z,5.65
2022-12-14T20:56:39.729Z,6.22
2022-12-14T20:59:07.199Z,7.10
2022-12-14T21:01:35.944Z,5.75
2022-12-14T21:04:03.615Z,5.60
2022-12-14T21:06:30.343Z,5.63
2022-12-14T21:09:04.750Z,4.95
2022-12-14T21:11:52.482Z,7.23
2022-12-14T21:14:20.545Z,6.28
2022-12-14T21:16:47.453Z,8.07
2022-12-14T21:19:14.416Z,7.00
2022-12-14T21:21:46.736Z,6.80
2022-12-14T21:24:31.073Z,6.53
2022-12-14T21:27:03.863Z,6.95
2022-12-14T21:29:30.316Z,6.57
2022-12-14T21:31:56.921Z,5.97
2022-12-14T21:34:23.610Z,6.43
2022-12-14T21:36:50.326Z,6.73
2022-12-14T21:39:18.478Z,6.28
2022-12-14T21:42:03.907Z,6.72
2022-12-14T21:44:31.043Z,6.15
2022-12-14T21:46:58.257Z,6.63
2022-12-14T21:49:24.678Z,6.57
2022-12-14T21:51:54.092Z,5.45
2022-12-14T21:54:20.494Z,6.25
2022-12-14T21:57:05.506Z,5.63
2022-12-14T21:59:36.442Z,6.15
2022-12-14T22:02:06.482Z,6.37
2022-12-14T22:04:39.334Z,5.70
2022-12-14T22:07:06.423Z,8.02
2022-12-14T22:09:32.843Z,6.20
2022-12-14T22:11:59.196Z,6.38
2022-12-14T22:14:25.648Z,5.80
2022-12-14T22:16:52.616Z,7.10
2022-12-14T22:19:21.647Z,6.07
2022-12-14T22:21:48.666Z,6.25
2022-12-14T22:24:16.638Z,6.82
2022-12-14T22:26:43.515Z,6.43
2022-12-14T22:29:10.378Z,7.03
2022-12-14T22:31:37.291Z,8.63
2022-12-14T22:34:04.712Z,10.10
2022-12-14T22:36:31.266Z,8.75
2022-12-14T22:38:59.047Z,7.67
2022-12-14T22:41:26.141Z,6.35
2022-12-14T22:43:59.096Z,6.38
2022-12-14T22:46:28.256Z,5.72
2022-12-14T22:48:55.079Z,8.65
2022-12-14T22:51:21.775Z,8.57
2022-12-14T22:53:49.684Z,8.68
2022-12-14T22:56:29.842Z,8.93
2022-12-14T22:59:05.237Z,7.93
2022-12-14T23:01:33.990Z,7.97
2022-12-14T23:04:01.038Z,7.07
2022-12-14T23:06:28.349Z,7.18
2022-12-14T23:09:13.415Z,7.93
2022-12-14T23:11:58.576Z,6.88
2022-12-14T23:14:43.398Z,5.82
2022-12-14T23:17:28.197Z,6.13
2022-12-14T23:20:13.304Z,6.63
2022-12-14T23:22:58.367Z,6.45
2022-12-14T23:25:43.557Z,7.88
2022-12-14T23:28:28.510Z,7.00
2022-12-14T23:31:15.788Z,6.50
2022-12-14T23:34:01.129Z,6.00
2022-12-14T23:36:46.756Z,6.30
2022-12-14T23:39:32.052Z,5.35
2022-12-14T23:42:16.950Z,5.38
2022-12-14T23:45:01.905Z,6.27
2022-12-14T23:47:46.972Z,6.78
2022-12-14T23:50:34.239Z,5.38
2022-12-14T23:53:25.790Z,6.05
2022-12-14T23:56:11.358Z,5.85
2022-12-14T23:58:56.517Z,7.63
